<?xml version="1.0" encoding="UTF-8" standalone="no" ?>
<gpx xmlns="http://www.topografix.com/GPX/1/1" xmlns:xsi="http://www.w3.org/2001/XMLSchema-instance" xsi:schemaLocation="http://www.topografix.com/GPX/1/1 http://www.topografix.com/GPX/1/1/gpx.xsd" version="1.1" creator="VisuGPX - https://www.visugpx.com">
  <metadata>
    <name>Norvège</name>
  </metadata>
  <trk>
    <name><![CDATA[à Kristiansund]]></name>
    <trkseg>
      <trkpt lat="63.12461" lon="7.72748">
        <ele>63.583456</ele>
        <time>2020-08-03T12:21:37.560Z</time>
      </trkpt>
      <trkpt lat="63.12328" lon="7.72941">
        <ele>67.488174</ele>
        <time>2020-08-03T12:23:21.619Z</time>
      </trkpt>
      <trkpt lat="63.12319" lon="7.7337">
        <ele>76.361002</ele>
        <time>2020-08-03T12:24:55.572Z</time>
      </trkpt>
      <trkpt lat="63.12267" lon="7.73816">
        <ele>81.347454</ele>
        <time>2020-08-03T12:26:07.585Z</time>
      </trkpt>
      <trkpt lat="63.12183" lon="7.74201">
        <ele>87.664397</ele>
        <time>2020-08-03T12:27:33.608Z</time>
      </trkpt>
      <trkpt lat="63.1208" lon="7.7459">
        <ele>91.98653</ele>
        <time>2020-08-03T12:29:05.570Z</time>
      </trkpt>
      <trkpt lat="63.11828" lon="7.7485">
        <ele>72.04637</ele>
        <time>2020-08-03T12:29:47.577Z</time>
      </trkpt>
      <trkpt lat="63.11632" lon="7.75082">
        <ele>71.700261</ele>
        <time>2020-08-03T12:30:56.594Z</time>
      </trkpt>
      <trkpt lat="63.11457" lon="7.75279">
        <ele>79.562329</ele>
        <time>2020-08-03T12:32:34.588Z</time>
      </trkpt>
      <trkpt lat="63.11276" lon="7.75475">
        <ele>81.373553</ele>
        <time>2020-08-03T12:33:38.581Z</time>
      </trkpt>
      <trkpt lat="63.11203" lon="7.75777">
        <ele>88.80624</ele>
        <time>2020-08-03T12:35:18.595Z</time>
      </trkpt>
      <trkpt lat="63.11011" lon="7.75781">
        <ele>97.572563</ele>
        <time>2020-08-03T12:37:12.600Z</time>
      </trkpt>
      <trkpt lat="63.10969" lon="7.76085">
        <ele>89.458063</ele>
        <time>2020-08-03T12:38:19.584Z</time>
      </trkpt>
      <trkpt lat="63.10958" lon="7.76658">
        <ele>67.320843</ele>
        <time>2020-08-03T12:38:54.576Z</time>
      </trkpt>
      <trkpt lat="63.1084" lon="7.76929">
        <ele>52.283746</ele>
        <time>2020-08-03T12:39:40.599Z</time>
      </trkpt>
      <trkpt lat="63.10893" lon="7.77345">
        <ele>68.66353</ele>
        <time>2020-08-03T12:41:09.559Z</time>
      </trkpt>
      <trkpt lat="63.10922" lon="7.77769">
        <ele>73.41782</ele>
        <time>2020-08-03T12:42:38.566Z</time>
      </trkpt>
      <trkpt lat="63.10752" lon="7.77863">
        <ele>66.122234</ele>
        <time>2020-08-03T12:44:09.559Z</time>
      </trkpt>
      <trkpt lat="63.10811" lon="7.78296">
        <ele>70.608797</ele>
        <time>2020-08-03T12:45:53.581Z</time>
      </trkpt>
      <trkpt lat="63.10788" lon="7.78731">
        <ele>77.926388</ele>
        <time>2020-08-03T12:47:25.574Z</time>
      </trkpt>
      <trkpt lat="63.10815" lon="7.79168">
        <ele>84.823131</ele>
        <time>2020-08-03T12:48:45.598Z</time>
      </trkpt>
      <trkpt lat="63.10729" lon="7.79582">
        <ele>84.539869</ele>
        <time>2020-08-03T12:49:50.583Z</time>
      </trkpt>
      <trkpt lat="63.10755" lon="7.80044">
        <ele>73.906647</ele>
        <time>2020-08-03T12:50:52.611Z</time>
      </trkpt>
      <trkpt lat="63.1079" lon="7.80488">
        <ele>69.999191</ele>
        <time>2020-08-03T12:52:11.597Z</time>
      </trkpt>
      <trkpt lat="63.10789" lon="7.80902">
        <ele>74.435504</ele>
        <time>2020-08-03T12:55:43.601Z</time>
      </trkpt>
      <trkpt lat="63.10781" lon="7.8133">
        <ele>79.987794</ele>
        <time>2020-08-03T12:57:31.577Z</time>
      </trkpt>
      <trkpt lat="63.10837" lon="7.81818">
        <ele>75.808987</ele>
        <time>2020-08-03T12:58:30.584Z</time>
      </trkpt>
      <trkpt lat="63.10893" lon="7.82246">
        <ele>71.384636</ele>
        <time>2020-08-03T13:01:19.609Z</time>
      </trkpt>
      <trkpt lat="63.10966" lon="7.82655">
        <ele>77.371249</ele>
        <time>2020-08-03T13:02:35.603Z</time>
      </trkpt>
      <trkpt lat="63.11103" lon="7.83006">
        <ele>81.331501</ele>
        <time>2020-08-03T13:03:48.605Z</time>
      </trkpt>
    </trkseg>
  </trk>
</gpx>